Time;durP1;ratioP1;P1;durP2;ratioP2;P2;SDS_P1;SDS_P2;PMS_P1;PMS_P2;Temp;Humidity;BMP_temperature;BMP_pressure;BME280_temperature;BME280_humidity;BME280_pressure;Samples;Min_cycle;Max_cycle;Signal;HPM_P1;HPM_P2
2022/08/07 00:01:35;;;;;;;1.40;1.02;;;17.20;59.00;;;16.39;46.18;97897.16;5070762;28;20404;-71
2022/08/07 00:04:01;;;;;;;1.77;1.10;;;17.20;59.40;;;16.37;45.98;97904.66;5071825;28;20699;-72
2022/08/07 00:06:27;;;;;;;1.00;0.80;;;17.20;59.60;;;16.33;45.69;97900.91;5072251;28;20403;-72
2022/08/07 00:08:55;;;;;;;2.53;1.25;;;17.10;59.50;;;16.33;45.27;97908.13;5072379;28;20439;-72
2022/08/07 00:11:21;;;;;;;1.35;1.05;;;17.10;58.90;;;16.34;45.76;97899.06;5072292;28;20784;-71
2022/08/07 00:13:47;;;;;;;2.45;1.15;;;17.10;59.00;;;16.34;45.26;97904.41;5071851;28;20980;-71
2022/08/07 00:16:13;;;;;;;3.47;1.40;;;17.10;58.80;;;16.32;45.00;97901.19;5072176;28;20820;-71
2022/08/07 00:18:39;;;;;;;1.63;1.10;;;17.00;58.70;;;16.15;45.92;97904.22;5072180;28;20460;-71
2022/08/07 00:21:08;;;;;;;2.05;1.42;;;16.90;59.40;;;16.14;45.67;97899.97;5072180;28;20869;-71
2022/08/07 00:23:37;;;;;;;2.13;1.15;;;16.80;59.10;;;16.06;45.97;97897.84;5071577;28;20399;-71
2022/08/07 00:26:07;;;;;;;2.28;1.30;;;16.80;59.40;;;16.01;45.69;97897.88;5071977;28;20432;-72
2022/08/07 00:28:34;;;;;;;4.32;1.50;;;16.80;59.10;;;16.01;45.82;97904.03;5071996;28;20464;-71
2022/08/07 00:31:06;;;;;;;2.28;1.35;;;16.80;59.30;;;16.05;45.12;97897.06;5071935;28;20391;-72
2022/08/07 00:33:33;;;;;;;2.80;1.63;;;16.80;58.90;;;16.06;45.39;97898.66;5071378;28;20392;-71
2022/08/07 00:35:59;;;;;;;4.75;1.73;;;16.80;59.00;;;16.03;45.44;97903.72;5071550;28;20409;-71
2022/08/07 00:38:26;;;;;;;4.28;1.98;;;16.60;59.00;;;15.95;45.80;97898.94;5071733;28;20398;-72
2022/08/07 00:40:51;;;;;;;3.05;1.80;;;16.70;59.50;;;15.98;45.32;97901.09;5071708;28;20399;-71
2022/08/07 00:43:19;;;;;;;3.45;1.98;;;16.70;59.10;;;15.88;45.48;97904.59;5069981;28;20426;-71
2022/08/07 00:45:45;;;;;;;4.68;2.30;;;16.60;59.00;;;15.86;45.91;97910.19;5071340;28;20494;-71
2022/08/07 00:48:11;;;;;;;2.40;1.63;;;16.60;59.40;;;15.86;46.10;97904.84;5071572;28;20399;-71
2022/08/07 00:50:38;;;;;;;3.40;1.80;;;16.60;59.60;;;15.86;45.96;97904.84;5071406;28;20410;-71
2022/08/07 00:53:04;;;;;;;2.15;1.50;;;16.60;59.60;;;15.84;46.28;97904.34;5071018;28;20400;-71
2022/08/07 00:55:30;;;;;;;2.95;1.77;;;16.60;59.80;;;15.86;46.26;97906.75;5071253;28;20399;-72
2022/08/07 00:57:56;;;;;;;2.38;1.42;;;16.60;59.70;;;15.85;46.80;97899.81;5071419;28;20403;-71
2022/08/07 01:00:24;;;;;;;3.88;1.50;;;16.60;60.40;;;15.84;46.60;97903.53;5070089;28;20407;-72
2022/08/07 01:02:50;;;;;;;3.17;1.63;;;16.60;60.00;;;15.85;46.11;97905.94;5070853;28;20797;-71
2022/08/07 01:05:18;;;;;;;2.65;1.50;;;16.60;59.80;;;15.81;46.84;97902.22;5071064;28;20920;-71
2022/08/07 01:07:44;;;;;;;2.45;1.73;;;16.60;60.20;;;15.80;47.23;97897.94;5085210;22;20415;-75
2022/08/07 01:10:10;;;;;;;3.80;1.73;;;16.60;60.40;;;15.80;47.41;97897.94;5071134;28;20396;-76
2022/08/07 01:12:39;;;;;;;3.50;1.48;;;16.50;61.00;;;15.70;47.82;97897.19;5070332;28;20501;-76
2022/08/07 01:15:07;;;;;;;2.03;1.27;;;16.40;61.30;;;15.65;47.73;97894.50;5070795;28;20423;-76
2022/08/07 01:17:35;;;;;;;2.22;1.30;;;16.40;61.40;;;15.66;47.34;97890.78;5070969;28;20408;-77
2022/08/07 01:20:07;;;;;;;3.72;1.50;;;16.40;61.20;;;15.62;47.72;97892.41;5070956;28;20404;-76
2022/08/07 01:22:35;;;;;;;2.00;1.27;;;16.40;61.40;;;15.59;48.22;97887.59;5071059;28;20496;-76
2022/08/07 01:25:03;;;;;;;4.40;1.30;;;16.40;62.00;;;15.55;47.92;97887.34;5070413;28;20970;-76
2022/08/07 01:27:29;;;;;;;4.07;1.33;;;16.30;62.00;;;15.50;47.73;97885.44;5070691;28;20388;-77
2022/08/07 01:29:56;;;;;;;2.50;1.33;;;16.30;61.70;;;15.45;48.05;97887.31;5070960;28;20399;-77
2022/08/07 01:32:22;;;;;;;3.45;1.65;;;16.00;61.90;;;15.28;49.12;97884.13;5070783;28;20404;-76
2022/08/07 01:34:49;;;;;;;2.97;1.48;;;15.90;62.90;;;15.22;49.36;97887.88;5070261;28;20388;-76
2022/08/07 01:37:16;;;;;;;2.45;1.50;;;16.00;63.40;;;15.25;49.24;97885.50;5070637;28;20762;-76
2022/08/07 01:39:44;;;;;;;3.40;1.30;;;16.00;63.20;;;15.27;49.17;97888.66;5070770;28;20404;-76
2022/08/07 01:42:11;;;;;;;3.17;1.33;;;16.00;63.40;;;15.24;49.37;97883.91;5069509;28;20449;-76
2022/08/07 01:44:37;;;;;;;2.20;1.17;;;16.00;63.40;;;15.24;49.40;97888.44;5068789;28;20422;-76
2022/08/07 01:47:03;;;;;;;2.47;1.58;;;16.00;63.50;;;15.26;48.99;97886.31;5069231;28;20410;-76
2022/08/07 01:49:29;;;;;;;1.92;1.10;;;15.90;63.10;;;15.17;49.22;97887.91;5070614;28;20832;-76
2022/08/07 01:51:57;;;;;;;2.23;1.30;;;15.90;63.30;;;15.13;49.46;97884.16;5070589;28;20473;-76
2022/08/07 01:54:25;;;;;;;3.27;1.53;;;15.90;63.80;;;15.13;49.59;97881.50;5070110;28;20537;-76
2022/08/07 01:57:01;;;;;;;2.58;1.13;;;15.90;63.80;;;15.10;50.10;97880.97;5070533;28;20528;-76
2022/08/07 01:59:39;;;;;;;1.65;1.15;;;15.90;64.00;;;15.13;49.68;97876.16;5070404;28;20425;-75
2022/08/07 02:02:11;;;;;;;1.70;1.17;;;15.90;63.70;;;15.12;50.31;97878.03;5069212;28;20404;-75
2022/08/07 02:04:42;;;;;;;2.65;1.10;;;15.90;64.20;;;15.18;50.04;97881.50;5068578;28;20904;-77
2022/08/07 02:07:10;;;;;;;1.60;1.20;;;16.00;64.30;;;15.17;50.58;97878.03;5070148;28;20439;-77
2022/08/07 02:09:38;;;;;;;4.78;1.25;;;16.00;64.70;;;15.18;49.42;97876.97;5070490;28;20869;-76
2022/08/07 02:12:17;;;;;;;3.00;1.37;;;15.90;63.70;;;15.09;50.28;97871.38;5070290;28;20396;-77
2022/08/07 02:14:47;;;;;;;2.38;1.40;;;15.90;64.40;;;15.11;49.99;97873.75;5069950;28;20395;-77
2022/08/07 02:17:14;;;;;;;1.33;1.15;;;15.90;64.20;;;15.08;50.53;97874.31;5070452;28;20453;-76
2022/08/07 02:19:43;;;;;;;3.13;1.47;;;15.80;64.60;;;15.07;50.36;97868.16;5070317;28;20396;-76
2022/08/07 02:22:11;;;;;;;2.45;1.20;;;15.80;64.70;;;15.03;50.55;97863.66;5070343;28;20395;-77
2022/08/07 02:24:40;;;;;;;3.92;1.40;;;15.80;64.90;;;15.05;50.39;97866.81;5071245;28;20411;-77
2022/08/07 02:27:08;;;;;;;1.55;1.23;;;15.90;64.80;;;15.04;50.25;97860.69;5074137;28;20906;-77
2022/08/07 02:29:35;;;;;;;4.88;1.40;;;15.90;64.70;;;15.05;51.36;97858.81;5074183;28;20400;-77
2022/08/07 02:32:03;;;;;;;3.97;1.60;;;15.80;65.40;;;15.05;51.63;97861.50;5074230;28;20768;-76
2022/08/07 02:34:31;;;;;;;4.20;1.20;;;15.80;66.00;;;15.02;51.46;97852.19;5073591;28;20431;-77
2022/08/07 02:36:58;;;;;;;1.88;1.35;;;15.80;65.90;;;14.94;51.73;97860.72;5074084;28;20502;-77
2022/08/07 02:39:26;;;;;;;1.70;1.15;;;15.80;66.10;;;14.91;51.68;97855.09;5074046;28;20433;-75
2022/08/07 02:41:52;;;;;;;2.47;1.50;;;15.70;66.30;;;14.90;52.01;97853.50;5072723;28;20454;-76
2022/08/07 02:44:22;;;;;;;3.35;1.25;;;15.70;66.40;;;14.88;51.86;97853.00;5073309;28;20415;-76
2022/08/07 02:46:51;;;;;;;1.90;1.23;;;15.60;66.30;;;14.82;51.81;97860.16;5072568;28;20404;-77
2022/08/07 02:49:17;;;;;;;2.75;1.30;;;15.60;66.30;;;14.81;51.82;97857.78;5073774;28;20875;-76
2022/08/07 02:51:46;;;;;;;2.53;1.20;;;15.60;66.30;;;14.77;51.42;97862.03;5073832;28;20429;-77
2022/08/07 02:54:13;;;;;;;2.50;1.10;;;15.50;66.30;;;14.64;51.93;97863.38;5073277;28;20399;-76
2022/08/07 02:56:42;;;;;;;3.08;1.48;;;15.40;66.60;;;14.61;52.28;97856.69;5073752;28;20452;-77
2022/08/07 02:59:13;;;;;;;2.35;1.33;;;15.40;66.90;;;14.52;52.74;97866.28;5073721;28;20399;-76
2022/08/07 03:01:43;;;;;;;1.60;1.33;;;15.30;67.30;;;14.54;52.78;97860.69;5073732;28;20933;-76
2022/08/07 03:04:12;;;;;;;1.53;1.23;;;15.30;67.40;;;14.52;53.07;97860.13;5072958;28;20460;-77
2022/08/07 03:06:39;;;;;;;3.05;1.30;;;15.30;67.70;;;14.53;52.79;97851.09;5073338;28;20407;-77
2022/08/07 03:09:06;;;;;;;4.07;1.40;;;15.30;67.60;;;14.55;52.64;97857.75;5073634;28;20396;-77
2022/08/07 03:11:35;;;;;;;1.80;1.23;;;15.30;67.20;;;14.48;52.71;97856.41;5073408;28;20395;-77
2022/08/07 03:14:04;;;;;;;7.28;1.42;;;15.30;67.50;;;14.54;52.16;97860.69;5072883;28;20408;-76
2022/08/07 03:16:31;;;;;;;2.10;1.20;;;15.30;67.10;;;14.41;52.75;97854.00;5073211;28;20483;-77
2022/08/07 03:18:59;;;;;;;1.70;1.35;;;15.20;67.50;;;14.39;52.56;97858.78;5073291;28;20412;-77
2022/08/07 03:21:26;;;;;;;5.55;1.40;;;15.20;67.40;;;14.39;52.55;97858.78;5073241;28;20404;-76
2022/08/07 03:23:55;;;;;;;2.05;1.27;;;15.10;67.40;;;14.36;52.90;97851.28;5072646;28;20419;-77
2022/08/07 03:26:27;;;;;;;2.50;1.20;;;15.10;68.10;;;14.21;53.44;97857.38;5073091;28;20403;-77
2022/08/07 03:28:54;;;;;;;1.77;1.20;;;15.00;68.50;;;14.20;54.07;97853.16;5073231;28;20391;-77
2022/08/07 03:31:22;;;;;;;4.17;1.43;;;15.00;68.70;;;14.23;53.54;97860.59;5073088;28;20430;-77
2022/08/07 03:33:54;;;;;;;1.42;1.25;;;15.00;68.40;;;14.23;54.04;97868.56;5072484;28;20831;-76
2022/08/07 03:36:24;;;;;;;3.78;1.40;;;15.10;68.80;;;14.28;54.04;97862.47;5072048;28;20399;-77
2022/08/07 03:38:54;;;;;;;2.88;1.27;;;15.00;68.80;;;14.20;54.16;97866.47;5072842;28;20419;-76
2022/08/07 03:41:20;;;;;;;2.67;1.30;;;15.00;69.00;;;14.16;54.16;97860.03;5072965;28;20391;-76
2022/08/07 03:43:46;;;;;;;4.70;1.50;;;15.00;69.30;;;14.15;54.16;97854.97;5072362;28;20404;-77
2022/08/07 03:46:13;;;;;;;1.65;1.33;;;15.00;69.30;;;14.16;54.80;97852.06;5072679;28;20457;-77
2022/08/07 03:48:40;;;;;;;1.63;1.13;;;15.00;69.60;;;14.13;54.32;97851.78;5072876;28;20482;-77
2022/08/07 03:51:07;;;;;;;4.03;1.65;;;14.90;69.30;;;14.15;54.43;97850.44;5072696;28;20495;-77
2022/08/07 03:53:37;;;;;;;2.58;1.40;;;15.00;69.50;;;14.12;54.54;97853.66;5072270;28;20404;-77
2022/08/07 03:56:06;;;;;;;2.22;1.30;;;14.80;69.60;;;14.02;54.85;97850.94;5072588;28;20471;-76
2022/08/07 03:58:32;;;;;;;3.40;1.40;;;14.80;70.10;;;13.98;55.03;97855.22;5072516;28;20429;-76
2022/08/07 04:00:59;;;;;;;3.58;1.50;;;14.80;70.40;;;14.00;55.83;97852.25;5072510;28;20404;-76
2022/08/07 04:03:25;;;;;;;3.25;1.30;;;14.80;70.80;;;13.94;55.58;97846.94;5072005;28;20404;-76
2022/08/07 04:05:52;;;;;;;1.35;1.23;;;14.70;71.10;;;13.88;55.69;97855.97;5072289;28;20414;-76
2022/08/07 04:08:18;;;;;;;6.10;1.60;;;14.70;71.40;;;13.94;56.50;97854.13;5072267;28;20407;-77
2022/08/07 04:10:47;;;;;;;2.78;1.30;;;14.70;71.80;;;13.87;56.32;97850.91;5072247;28;20396;-76
2022/08/07 04:13:14;;;;;;;4.05;1.40;;;14.70;71.90;;;13.91;56.25;97854.63;5070616;28;20411;-77
2022/08/07 04:15:40;;;;;;;1.92;1.40;;;14.60;71.70;;;13.82;56.54;97857.00;5072135;28;20395;-76
2022/08/07 04:18:06;;;;;;;1.50;1.10;;;14.60;72.10;;;13.82;56.97;97864.19;5072193;28;20407;-77
2022/08/07 04:20:33;;;;;;;2.67;1.20;;;14.60;72.50;;;13.85;57.01;97863.66;5072115;28;20457;-76
2022/08/07 04:22:59;;;;;;;1.58;1.25;;;14.70;72.30;;;13.89;57.46;97864.75;5071712;28;20404;-76
2022/08/07 04:25:26;;;;;;;2.65;1.33;;;14.70;72.60;;;13.90;56.84;97872.47;5071925;28;20411;-76
2022/08/07 04:27:53;;;;;;;1.88;1.20;;;14.70;72.30;;;13.89;57.04;97873.53;5071893;28;20391;-76
2022/08/07 04:30:19;;;;;;;1.40;1.10;;;14.70;72.60;;;13.97;56.74;97879.41;5071930;28;20400;-76
2022/08/07 04:32:46;;;;;;;1.55;1.20;;;14.70;72.50;;;13.92;57.12;97875.66;5071499;28;20413;-77
2022/08/07 04:35:12;;;;;;;4.40;1.40;;;14.70;72.80;;;13.92;57.80;97883.63;5071724;28;20860;-77
2022/08/07 04:37:39;;;;;;;2.90;1.40;;;14.70;73.30;;;13.95;57.86;97885.00;5071723;28;20428;-76
2022/08/07 04:40:06;;;;;;;1.67;1.38;;;14.80;73.60;;;14.00;57.81;97878.88;5071806;28;20469;-77
2022/08/07 04:42:33;;;;;;;2.75;1.30;;;14.80;73.60;;;14.06;58.19;97883.19;5071643;28;20418;-77
2022/08/07 04:45:03;;;;;;;2.65;1.60;;;14.80;74.00;;;14.04;58.24;97878.13;5071135;28;20461;-75
2022/08/07 04:47:37;;;;;;;2.55;1.55;;;14.80;74.10;;;14.07;58.12;97882.09;5071492;28;20404;-77
2022/08/07 04:50:10;;;;;;;1.77;1.10;;;14.90;74.20;;;14.13;58.59;97881.06;5071704;28;20404;-76
2022/08/07 04:52:45;;;;;;;1.77;1.20;;;14.90;74.50;;;14.22;58.62;97882.94;5071538;28;21000;-76
2022/08/07 04:55:21;;;;;;;2.00;1.42;;;15.00;74.60;;;14.32;58.64;97885.66;5071385;28;20865;-76
2022/08/07 04:58:03;;;;;;;2.15;1.30;;;15.10;74.60;;;14.44;58.82;97889.97;5071384;28;20408;-77
2022/08/07 05:00:46;;;;;;;2.45;1.40;;;15.30;74.90;;;14.54;59.03;97890.78;5071324;28;20403;-76
2022/08/07 05:03:22;;;;;;;1.42;1.27;;;15.40;74.90;;;14.63;58.90;97888.41;5070926;28;20388;-77
2022/08/07 05:05:58;;;;;;;1.65;1.10;;;15.40;75.00;;;14.70;58.68;97889.75;5071033;28;20410;-77
2022/08/07 05:08:34;;;;;;;4.53;1.20;;;15.50;75.00;;;14.78;58.54;97896.41;5071305;28;20773;-77
2022/08/07 05:11:09;;;;;;;1.90;1.23;;;15.60;75.10;;;14.88;58.08;97885.78;5071143;28;20412;-76
2022/08/07 05:13:44;;;;;;;1.80;1.27;;;15.70;74.60;;;14.94;58.25;97887.38;5070648;28;20908;-76
2022/08/07 05:16:15;;;;;;;1.02;0.93;;;15.70;74.40;;;14.99;58.53;97887.38;5071015;28;20892;-77
2022/08/07 05:18:49;;;;;;;1.20;1.10;;;15.80;74.60;;;15.05;58.54;97899.63;5071135;28;20533;-76
2022/08/07 05:21:19;;;;;;;1.35;1.25;;;15.90;75.00;;;15.14;59.12;97899.91;5071019;28;20391;-76
2022/08/07 05:23:50;;;;;;;2.30;1.33;;;16.00;75.50;;;15.23;59.10;97897.50;5070403;28;20407;-77
2022/08/07 05:26:19;;;;;;;2.38;1.40;;;16.10;75.70;;;15.30;59.01;97904.16;5070772;28;20417;-77
2022/08/07 05:28:50;;;;;;;2.55;1.25;;;16.10;75.60;;;15.37;58.90;97912.69;5070819;28;20913;-77
2022/08/07 05:31:21;;;;;;;1.90;1.35;;;16.20;75.50;;;15.45;58.79;97911.34;5069517;28;20392;-77
2022/08/07 05:33:49;;;;;;;1.38;1.20;;;16.20;75.40;;;15.50;58.68;97912.13;5070486;28;20396;-76
2022/08/07 05:36:16;;;;;;;2.35;1.42;;;16.30;75.30;;;15.56;58.87;97912.97;5070810;28;20402;-77
2022/08/07 05:38:42;;;;;;;1.20;1.10;;;16.40;75.50;;;15.62;59.14;97914.53;5070738;28;20403;-76
2022/08/07 05:41:09;;;;;;;2.65;1.60;;;16.50;75.60;;;15.68;58.95;97913.47;5070651;28;20888;-76
2022/08/07 05:43:36;;;;;;;1.90;1.60;;;16.50;75.70;;;15.72;58.94;97914.50;5070228;28;20476;-76
2022/08/07 05:46:03;;;;;;;1.95;1.33;;;16.50;75.70;;;15.79;58.79;97916.88;5070420;28;20477;-77
2022/08/07 05:48:30;;;;;;;2.78;1.77;;;16.60;75.70;;;15.84;59.04;97915.03;5070570;28;20403;-76
2022/08/07 05:50:58;;;;;;;2.60;1.87;;;16.60;75.70;;;15.90;58.88;97921.13;5070423;28;20496;-76
2022/08/07 05:53:24;;;;;;;2.20;1.98;;;16.70;75.90;;;15.95;58.93;97920.31;5069987;28;20458;-76
2022/08/07 05:55:51;;;;;;;2.40;1.80;;;16.70;75.80;;;16.00;58.91;97918.44;5070393;28;20407;-77
2022/08/07 05:58:19;;;;;;;3.00;2.20;;;16.80;76.00;;;16.06;58.82;97924.56;5070325;28;20416;-76
2022/08/07 06:00:47;;;;;;;4.85;2.10;;;16.80;75.90;;;16.12;58.78;97924.25;5070028;28;20956;-76
2022/08/07 06:03:15;;;;;;;3.33;2.42;;;16.90;75.80;;;16.17;58.49;97926.09;5069957;28;20453;-76
2022/08/07 06:05:43;;;;;;;3.40;2.35;;;16.90;75.90;;;16.21;58.25;97929.84;5070190;28;20412;-76
2022/08/07 06:08:09;;;;;;;2.78;2.28;;;17.00;75.40;;;16.24;58.27;97931.94;5068922;28;20404;-76
2022/08/07 06:10:36;;;;;;;4.22;2.20;;;17.00;75.40;;;16.28;58.37;97922.31;5069098;28;20415;-76
2022/08/07 06:13:03;;;;;;;2.78;2.30;;;17.00;75.50;;;16.31;58.66;97934.34;5068593;28;20407;-76
2022/08/07 06:15:30;;;;;;;4.03;2.53;;;17.10;75.80;;;16.35;58.54;97920.16;5070177;28;20400;-76
2022/08/07 06:17:57;;;;;;;4.05;2.08;;;17.10;75.90;;;16.39;58.86;97923.09;5070207;28;20400;-74
2022/08/07 06:20:24;;;;;;;3.67;2.25;;;17.10;76.80;;;16.42;58.94;97920.66;5070213;28;20398;-76
2022/08/07 06:22:52;;;;;;;2.45;2.22;;;17.10;76.30;;;16.46;59.17;97926.25;5069851;28;20402;-76
2022/08/07 06:25:18;;;;;;;5.60;2.30;;;17.20;76.50;;;16.49;59.33;97925.69;5070028;28;20465;-76
2022/08/07 06:27:44;;;;;;;5.15;2.45;;;17.20;76.70;;;16.54;59.51;97926.47;5070026;28;20392;-77
2022/08/07 06:30:11;;;;;;;3.45;2.70;;;17.30;77.00;;;16.57;59.82;97923.25;5070141;28;20400;-76
2022/08/07 06:32:38;;;;;;;4.20;3.08;;;17.30;77.50;;;16.62;60.16;97928.59;5069973;28;20491;-77
2022/08/07 06:35:05;;;;;;;3.85;2.72;;;17.30;77.70;;;16.67;60.11;97914.41;5069618;28;20414;-76
2022/08/07 06:37:31;;;;;;;4.72;2.67;;;17.40;78.00;;;16.72;60.43;97910.88;5070156;28;20453;-76
2022/08/07 06:39:58;;;;;;;4.70;2.70;;;17.40;78.20;;;16.76;60.32;97909.28;5070101;28;20404;-77
2022/08/07 06:42:28;;;;;;;3.20;2.70;;;17.50;78.30;;;16.80;60.49;97907.63;5070214;28;20422;-76
2022/08/07 06:44:56;;;;;;;4.38;2.58;;;17.50;78.70;;;16.84;60.44;97912.13;5069488;28;20422;-76
2022/08/07 06:47:23;;;;;;;5.68;2.80;;;17.60;78.80;;;16.89;60.71;97914.00;5069961;28;20403;-76
2022/08/07 06:49:49;;;;;;;3.03;2.72;;;17.60;78.80;;;16.93;60.42;97909.66;5069989;28;20463;-76
2022/08/07 06:52:17;;;;;;;3.78;2.30;;;17.60;78.80;;;16.98;60.48;97910.44;5069993;28;20392;-76
2022/08/07 06:54:45;;;;;;;4.13;2.42;;;17.70;78.90;;;17.02;60.25;97905.31;5069523;28;20430;-75
2022/08/07 06:57:12;;;;;;;3.60;2.47;;;17.70;78.80;;;17.07;60.29;97915.97;5069808;28;20499;-76
2022/08/07 06:59:40;;;;;;;3.10;2.25;;;17.80;78.80;;;17.12;60.29;97915.16;5069943;28;20408;-76
2022/08/07 07:02:13;;;;;;;5.13;2.78;;;17.80;78.80;;;17.16;60.61;97916.97;5070055;28;20400;-76
2022/08/07 07:04:41;;;;;;;4.65;2.47;;;17.90;79.10;;;17.20;60.65;97911.88;5069202;28;20420;-76
2022/08/07 07:07:07;;;;;;;4.17;2.50;;;17.90;79.30;;;17.26;60.69;97914.22;5083118;22;20424;-71
2022/08/07 07:09:33;;;;;;;4.00;2.95;;;17.90;79.50;;;17.30;60.83;97907.22;5069810;28;20417;-71
2022/08/07 07:12:26;;;;;;;3.72;2.72;;;18.00;79.70;;;17.37;60.75;97914.91;5071708;28;20396;-70
2022/08/07 07:15:00;;;;;;;5.05;2.53;;;18.00;79.70;;;17.42;60.69;97912.22;5072811;28;20438;-71
2022/08/07 07:17:35;;;;;;;3.45;2.40;;;18.10;79.80;;;17.47;60.70;97909.47;5073286;28;20469;-71
2022/08/07 07:20:07;;;;;;;3.57;2.40;;;18.20;79.80;;;17.51;60.63;97907.84;5073307;28;20438;-71
2022/08/07 07:22:34;;;;;;;3.50;2.60;;;18.20;79.80;;;17.57;60.63;97911.28;5073097;28;20987;-71
2022/08/07 07:25:03;;;;;;;3.83;2.63;;;18.30;79.80;;;17.62;60.13;97911.25;5072765;28;20829;-71
2022/08/07 07:27:35;;;;;;;4.65;2.50;;;18.30;79.40;;;17.68;60.14;97912.78;5073032;28;20404;-71
2022/08/07 07:30:04;;;;;;;4.45;2.53;;;18.40;79.10;;;17.74;60.02;97917.03;5073126;28;20460;-71
2022/08/07 07:32:33;;;;;;;3.78;2.80;;;18.40;79.30;;;17.78;59.22;97910.00;5072909;28;20415;-71
2022/08/07 07:35:01;;;;;;;3.92;2.72;;;18.50;78.30;;;17.86;59.07;97905.91;5072669;28;20391;-71
2022/08/07 07:37:29;;;;;;;3.10;2.30;;;18.50;78.00;;;17.93;58.78;97909.03;5072847;28;20419;-71
2022/08/07 07:40:00;;;;;;;3.03;2.17;;;18.60;77.70;;;17.98;59.18;97909.75;5072908;28;20764;-71
2022/08/07 07:42:26;;;;;;;2.28;1.85;;;18.60;78.00;;;18.05;59.24;97909.41;5072931;28;20752;-71
2022/08/07 07:44:56;;;;;;;2.60;2.20;;;18.70;78.20;;;18.10;58.97;97902.13;5072374;28;20415;-71
2022/08/07 07:47:24;;;;;;;3.22;2.00;;;18.80;79.10;;;18.17;58.83;97904.47;5072832;28;20449;-71
2022/08/07 07:49:52;;;;;;;2.42;2.10;;;18.80;77.80;;;18.22;59.02;97901.72;5072691;28;20423;-71
2022/08/07 07:52:20;;;;;;;3.07;2.00;;;18.90;78.00;;;18.30;58.73;97894.91;5072597;28;20477;-71
2022/08/07 07:54:48;;;;;;;4.22;2.30;;;19.00;77.80;;;18.36;57.79;97899.13;5072275;28;20404;-71
2022/08/07 07:57:15;;;;;;;2.78;1.95;;;19.00;77.20;;;18.42;57.77;97893.41;5072420;28;20400;-71
2022/08/07 07:59:41;;;;;;;2.17;1.83;;;19.00;76.50;;;18.47;57.46;97897.91;5072643;28;20396;-71
2022/08/07 08:02:10;;;;;;;3.80;2.10;;;19.10;76.20;;;18.53;57.01;97889.50;5072523;28;20403;-71
2022/08/07 08:04:36;;;;;;;2.58;1.95;;;19.20;75.70;;;18.60;56.39;97891.03;5071999;28;20476;-71
2022/08/07 08:07:03;;;;;;;2.85;1.80;;;19.30;74.80;;;18.69;55.59;97892.78;5072132;28;20414;-71
2022/08/07 08:09:32;;;;;;;3.08;1.58;;;19.30;74.10;;;18.77;54.86;97886.78;5072370;28;20932;-71
2022/08/07 08:12:02;;;;;;;3.58;1.52;;;19.40;73.10;;;18.83;53.35;97882.13;5072199;28;20889;-71
2022/08/07 08:14:29;;;;;;;4.10;1.50;;;19.50;71.40;;;18.88;52.47;97880.16;5072016;28;20532;-70
2022/08/07 08:16:57;;;;;;;1.77;1.50;;;19.50;70.30;;;18.99;52.68;97888.03;5072158;28;20746;-70
2022/08/07 08:19:28;;;;;;;4.10;1.52;;;19.60;70.10;;;19.07;52.99;97885.50;5072201;28;20404;-71
2022/08/07 08:27:33;;;;;;;3.20;1.60;;;19.90;70.00;;;19.50;51.80;97882.63;5072019;28;20418;-71
2022/08/07 08:30:04;;;;;;;2.97;1.23;;;20.10;69.60;;;19.64;51.07;97881.56;5071901;28;20392;-71
2022/08/07 08:32:35;;;;;;;2.85;1.38;;;20.20;68.30;;;19.80;49.80;97882.06;5071853;28;20398;-70
2022/08/07 08:35:05;;;;;;;1.88;1.20;;;20.40;67.20;;;19.96;49.76;97882.56;5071497;28;20402;-71
2022/08/07 08:37:35;;;;;;;2.50;1.38;;;20.50;66.50;;;20.08;49.27;97882.84;5071721;28;20565;-70
2022/08/07 08:40:06;;;;;;;1.55;1.27;;;20.70;65.60;;;20.18;47.02;97877.28;5071912;28;20488;-70
2022/08/07 08:42:40;;;;;;;1.33;1.10;;;20.80;62.90;;;20.29;46.95;97880.56;5071794;28;20396;-70
2022/08/07 08:45:18;;;;;;;1.38;1.15;;;20.90;63.00;;;20.37;46.51;97885.25;5071447;28;20415;-70
2022/08/07 08:48:00;;;;;;;1.33;1.00;;;21.00;62.40;;;20.47;45.56;97888.50;5071487;28;20450;-71
2022/08/07 08:50:33;;;;;;;2.08;1.23;;;21.10;61.30;;;20.59;44.48;97893.38;5071616;28;20422;-69
2022/08/07 08:53:08;;;;;;;1.45;0.90;;;21.20;60.10;;;20.67;43.22;97881.88;5071121;28;20399;-70
2022/08/07 08:55:40;;;;;;;4.85;0.98;;;21.30;58.90;;;20.74;42.99;97887.63;5071259;28;20738;-70
2022/08/07 08:58:14;;;;;;;0.98;0.90;;;21.30;58.10;;;20.82;43.28;97881.50;5071400;28;20399;-70
2022/08/07 09:00:48;;;;;;;1.63;1.08;;;21.40;58.60;;;20.88;42.65;97882.19;5071374;28;20392;-70
2022/08/07 09:03:33;;;;;;;1.48;1.05;;;21.40;57.80;;;20.97;42.64;97871.50;5070891;28;20395;-70
2022/08/07 09:06:07;;;;;;;1.55;0.98;;;21.50;57.90;;;21.05;42.46;97878.84;5067874;28;20462;-69
2022/08/07 09:08:46;;;;;;;1.60;1.08;;;21.60;57.60;;;21.13;42.50;97876.19;5071046;28;20403;-70
2022/08/07 09:11:19;;;;;;;1.27;0.80;;;21.70;57.70;;;21.21;41.84;97880.84;5070998;28;20392;-71
2022/08/07 09:14:05;;;;;;;1.90;0.80;;;21.80;56.90;;;21.29;40.36;97870.44;5070550;28;20438;-71
2022/08/07 09:16:43;;;;;;;1.30;0.70;;;21.80;55.40;;;21.36;39.01;97860.81;5071026;28;20479;-71
2022/08/07 09:19:21;;;;;;;4.15;0.98;;;21.90;54.30;;;21.46;39.04;97873.25;5071065;28;20419;-71
2022/08/07 09:22:05;;;;;;;5.18;1.00;;;22.00;53.80;;;21.51;37.37;97867.72;5071030;28;20777;-70
2022/08/07 09:24:45;;;;;;;2.70;0.80;;;22.10;53.20;;;21.58;38.32;97878.84;5070293;28;20436;-71
2022/08/07 09:27:23;;;;;;;1.98;0.90;;;22.10;53.00;;;21.61;37.95;97875.53;5070920;28;20391;-71
2022/08/07 09:29:59;;;;;;;2.23;1.00;;;22.20;52.80;;;21.62;37.49;97869.84;5070871;28;20499;-70
2022/08/07 09:32:54;;;;;;;0.70;0.70;;;22.20;52.00;;;21.72;38.25;97873.38;5070842;28;20395;-71
2022/08/07 09:35:38;;;;;;;2.45;0.73;;;22.20;52.90;;;21.80;38.03;97870.69;5070075;28;20406;-70
2022/08/07 09:38:16;;;;;;;2.20;0.85;;;22.40;52.80;;;21.91;38.14;97866.63;5070708;28;20494;-70
2022/08/07 09:41:06;;;;;;;1.48;0.90;;;22.50;52.80;;;22.02;37.13;97864.47;5070763;28;20811;-71
2022/08/07 09:44:00;;;;;;;0.73;0.63;;;22.50;51.60;;;22.07;36.45;97852.72;5070248;28;20453;-71
2022/08/07 09:46:42;;;;;;;2.40;0.80;;;22.60;51.40;;;22.21;37.78;97856.09;5070551;28;20502;-71
2022/08/07 09:49:40;;;;;;;0.93;0.80;;;22.70;52.30;;;22.34;37.17;97864.03;5070588;28;20407;-70
2022/08/07 09:52:20;;;;;;;0.70;0.65;;;22.90;52.00;;;22.48;36.50;97853.09;5070565;28;20396;-71
2022/08/07 09:54:56;;;;;;;1.27;0.98;;;23.00;50.90;;;22.59;36.67;97854.38;5069418;28;20495;-71
2022/08/07 09:57:54;;;;;;;1.00;0.70;;;23.10;51.10;;;22.82;36.43;97838.06;5070488;28;20506;-71
2022/08/07 10:00:25;;;;;;;3.75;0.95;;;23.30;50.80;;;23.01;32.99;97841.19;5070537;28;20872;-70
2022/08/07 10:03:26;;;;;;;0.98;0.80;;;23.60;47.00;;;23.42;33.67;97843.31;5070057;28;20397;-71
2022/08/07 10:06:27;;;;;;;3.92;1.30;;;24.10;47.80;;;23.79;32.71;97828.25;5069087;28;20829;-71
2022/08/07 10:09:20;;;;;;;1.45;0.55;;;24.60;46.20;;;24.12;32.27;97833.81;5070385;28;20384;-71
2022/08/07 10:12:04;;;;;;;3.20;0.77;;;25.10;45.60;;;24.32;30.68;97838.47;5070483;28;20479;-71
2022/08/07 10:15:02;;;;;;;1.83;0.97;;;25.20;43.90;;;24.61;31.65;97834.91;5069931;28;20974;-70
2022/08/07 10:18:27;;;;;;;1.00;0.60;;;25.40;44.80;;;24.77;28.81;97830.47;5070312;28;20398;-70
2022/08/07 10:21:14;;;;;;;0.70;0.60;;;25.60;44.50;;;24.85;29.51;97836.91;5008288;28;20921;-71
2022/08/07 10:23:57;;;;;;;1.10;0.70;;;25.50;42.60;;;24.65;29.62;97825.00;5069818;28;20399;-71
2022/08/07 10:26:42;;;;;;;0.98;0.63;;;25.30;42.40;;;24.51;29.14;97832.59;5070157;28;20499;-71
2022/08/07 10:29:41;;;;;;;2.47;0.60;;;25.10;41.80;;;24.15;28.52;97822.31;5070261;28;20901;-72
2022/08/07 10:32:50;;;;;;;1.35;0.63;;;24.70;41.10;;;24.11;30.17;97822.19;5070280;28;20391;-71
2022/08/07 10:35:26;;;;;;;0.87;0.60;;;24.60;43.30;;;24.19;30.42;97820.53;5070064;28;20404;-71
2022/08/07 10:38:10;;;;;;;0.65;0.60;;;24.70;44.30;;;24.17;29.25;97817.38;5070028;28;20398;-72
2022/08/07 10:40:46;;;;;;;1.08;0.73;;;24.80;42.60;;;24.39;30.37;97810.88;5070043;28;20892;-72
2022/08/07 10:43:17;;;;;;;1.10;0.70;;;24.90;43.40;;;24.65;30.23;97806.06;5068424;28;20446;-71